Time;durP1;ratioP1;P1;durP2;ratioP2;P2;SDS_P1;SDS_P2;PMS_P1;PMS_P2;Temp;Humidity;BMP_temperature;BMP_pressure;BME280_temperature;BME280_humidity;BME280_pressure;Samples;Min_cycle;Max_cycle;Signal;HPM_P1;HPM_P2
2023/07/31 00:01:12;;;;;;;0.20;0.20;;;;;;;;;;6226534;22;20024;-89
2023/07/31 00:03:38;;;;;;;0.25;0.25;;;;;;;;;;6199382;23;20421;-89
2023/07/31 00:06:04;;;;;;;0.20;0.20;;;;;;;;;;6203110;23;20017;-89
2023/07/31 00:08:30;;;;;;;0.13;0.13;;;;;;;;;;6202161;23;20016;-90
2023/07/31 00:10:57;;;;;;;0.10;0.10;;;;;;;;;;6202970;22;20040;-89
2023/07/31 00:13:23;;;;;;;0.10;0.10;;;;;;;;;;6209930;22;20105;-90
2023/07/31 00:15:49;;;;;;;0.10;0.10;;;;;;;;;;6205765;23;20001;-89
2023/07/31 00:20:53;;;;;;;0.20;0.20;;;;;;;;;;6210880;22;20024;-89
2023/07/31 00:23:19;;;;;;;0.20;0.20;;;;;;;;;;6202580;22;20070;-90
2023/07/31 00:25:45;;;;;;;0.10;0.10;;;;;;;;;;6200713;22;20042;-88
2023/07/31 00:28:11;;;;;;;0.10;0.10;;;;;;;;;;6203245;22;20000;-91
2023/07/31 00:30:37;;;;;;;0.10;0.10;;;;;;;;;;6201552;22;20332;-89
2023/07/31 00:33:03;;;;;;;0.20;0.20;;;;;;;;;;6212153;22;20009;-91
2023/07/31 00:35:35;;;;;;;0.20;0.20;;;;;;;;;;6208294;22;20012;-90
2023/07/31 00:43:19;;;;;;;0.08;0.08;;;;;;;;;;6226669;22;20023;-91
2023/07/31 00:51:03;;;;;;;0.20;0.20;;;;;;;;;;6305756;22;20053;-90
2023/07/31 01:51:25;;;;;;;0.25;0.25;;;;;;;;;;6211055;22;20020;-92
2023/07/31 02:09:43;;;;;;;0.10;0.10;;;;;;;;;;6191611;22;20015;-89
2023/07/31 02:42:41;;;;;;;0.10;0.10;;;;;;;;;;6181594;22;20043;-90
2023/07/31 02:53:08;;;;;;;0.20;0.20;;;;;;;;;;6179185;22;20047;-91
2023/07/31 02:55:34;;;;;;;0.20;0.20;;;;;;;;;;6202901;22;20047;-90
2023/07/31 03:21:25;;;;;;;0.10;0.10;;;;;;;;;;6211067;22;20347;-89
2023/07/31 03:29:12;;;;;;;0.20;0.20;;;;;;;;;;6209150;22;20009;-89
2023/07/31 03:31:40;;;;;;;0.10;0.10;;;;;;;;;;6213730;22;20004;-88
2023/07/31 03:52:51;;;;;;;0.10;0.10;;;;;;;;;;6205601;22;20044;-87
2023/07/31 03:55:30;;;;;;;0.10;0.10;;;;;;;;;;6315458;22;20016;-90
2023/07/31 04:03:19;;;;;;;0.13;0.13;;;;;;;;;;6192631;22;20035;-89
2023/07/31 04:21:22;;;;;;;0.10;0.10;;;;;;;;;;6183650;22;20021;-90
2023/07/31 04:36:50;;;;;;;0.10;0.10;;;;;;;;;;6326724;22;20028;-87
2023/07/31 04:39:17;;;;;;;0.17;0.17;;;;;;;;;;6215179;22;20008;-86
2023/07/31 04:52:14;;;;;;;0.20;0.20;;;;;;;;;;6232833;22;20036;-90
2023/07/31 04:57:21;;;;;;;0.10;0.10;;;;;;;;;;6177054;22;20016;-88
2023/07/31 05:05:02;;;;;;;0.10;0.10;;;;;;;;;;6216321;22;19932;-90
2023/07/31 05:18:38;;;;;;;0.00;0.00;;;;;;;;;;6246336;22;20351;-90
2023/07/31 05:31:28;;;;;;;0.03;0.03;;;;;;;;;;6148684;23;20170;-90
2023/07/31 05:52:04;;;;;;;0.08;0.08;;;;;;;;;;6191924;22;20005;-88
2023/07/31 06:04:54;;;;;;;0.20;0.20;;;;;;;;;;6150683;22;19908;-89
2023/07/31 06:07:20;;;;;;;0.10;0.10;;;;;;;;;;6203654;22;20017;-90
2023/07/31 06:09:46;;;;;;;0.00;0.00;;;;;;;;;;6204269;22;20047;-90
2023/07/31 06:12:12;;;;;;;0.20;0.20;;;;;;;;;;6204009;22;20017;-91
2023/07/31 06:14:38;;;;;;;0.10;0.10;;;;;;;;;;6204990;22;20021;-90
2023/07/31 06:17:05;;;;;;;0.10;0.10;;;;;;;;;;6206677;22;20016;-91
2023/07/31 06:19:39;;;;;;;0.10;0.10;;;;;;;;;;6205780;22;20027;-89
2023/07/31 06:45:51;;;;;;;0.10;0.10;;;;;;;;;;6232778;22;20100;-90
2023/07/31 06:48:25;;;;;;;0.10;0.10;;;;;;;;;;6176061;22;20016;-90
2023/07/31 06:51:16;;;;;;;0.20;0.20;;;;;;;;;;6239349;22;20000;-91
2023/07/31 06:53:45;;;;;;;0.17;0.17;;;;;;;;;;6251168;22;20020;-91
2023/07/31 06:56:13;;;;;;;0.10;0.10;;;;;;;;;;6262007;22;20409;-89
2023/07/31 06:58:39;;;;;;;0.10;0.10;;;;;;;;;;6214266;22;20048;-90
2023/07/31 07:03:42;;;;;;;0.10;0.10;;;;;;;;;;6227137;22;20036;-91
2023/07/31 07:06:12;;;;;;;0.22;0.22;;;;;;;;;;6244229;22;20008;-90
2023/07/31 07:08:40;;;;;;;0.17;0.17;;;;;;;;;;6192060;22;20020;-91
2023/07/31 07:13:50;;;;;;;0.10;0.10;;;;;;;;;;6253657;22;20019;-90
2023/07/31 07:16:25;;;;;;;0.10;0.10;;;;;;;;;;6244270;22;20004;-93
2023/07/31 07:26:39;;;;;;;0.10;0.10;;;;;;;;;;6243002;22;20031;-90
2023/07/31 07:29:07;;;;;;;0.00;0.00;;;;;;;;;;6220598;22;20000;-91
2023/07/31 07:31:36;;;;;;;0.20;0.20;;;;;;;;;;6217624;22;20028;-92
2023/07/31 07:34:03;;;;;;;0.10;0.10;;;;;;;;;;6202861;22;20021;-92
2023/07/31 07:36:29;;;;;;;0.10;0.10;;;;;;;;;;6213756;23;20075;-90
2023/07/31 07:44:05;;;;;;;0.08;0.08;;;;;;;;;;6238691;22;20016;-93
2023/07/31 07:46:31;;;;;;;0.00;0.00;;;;;;;;;;6159840;23;20471;-90
2023/07/31 07:48:57;;;;;;;0.10;0.10;;;;;;;;;;6185017;22;20000;-91
2023/07/31 07:53:59;;;;;;;0.10;0.10;;;;;;;;;;6202596;22;20036;-93
2023/07/31 07:59:01;;;;;;;0.05;0.05;;;;;;;;;;6247254;22;20030;-91
2023/07/31 08:04:03;;;;;;;0.22;0.22;;;;;;;;;;6208880;22;20029;-92
2023/07/31 08:09:08;;;;;;;0.03;0.03;;;;;;;;;;6206598;22;20020;-91
2023/07/31 08:16:54;;;;;;;0.10;0.10;;;;;;;;;;6215055;22;20008;-91
2023/07/31 08:42:50;;;;;;;0.10;0.10;;;;;;;;;;6162743;22;20016;-93
2023/07/31 09:00:55;;;;;;;0.10;0.10;;;;;;;;;;6195959;22;20084;-91
2023/07/31 09:11:17;;;;;;;0.03;0.03;;;;;;;;;;6188819;22;20115;-91
2023/07/31 09:16:35;;;;;;;;;;;;;;;;;;;;;
2023/07/31 09:34:45;;;;;;;0.10;0.10;;;;;;;;;;6291056;22;20008;-95
2023/07/31 09:50:31;;;;;;;0.10;0.10;;;;;;;;;;6163614;22;20454;-94
2023/07/31 09:55:34;;;;;;;0.10;0.10;;;;;;;;;;6168181;22;20029;-94
2023/07/31 10:03:16;;;;;;;0.10;0.10;;;;;;;;;;6201293;22;20032;-92
2023/07/31 10:39:35;;;;;;;0.10;0.10;;;;;;;;;;6214749;22;20005;-89
2023/07/31 11:06:03;;;;;;;0.10;0.10;;;;;;;;;;6205889;22;20032;-93
2023/07/31 11:45:03;;;;;;;0.00;0.00;;;;;;;;;;6327203;22;20124;-92
2023/07/31 11:50:11;;;;;;;0.10;0.10;;;;;;;;;;6155285;22;20024;-91
2023/07/31 11:57:50;;;;;;;0.00;0.00;;;;;;;;;;6217907;22;20023;-88
2023/07/31 12:00:33;;;;;;;0.05;0.05;;;;;;;;;;6267208;22;20025;-90
2023/07/31 12:03:02;;;;;;;0.10;0.10;;;;;;;;;;6243476;22;20044;-90
2023/07/31 12:05:35;;;;;;;0.10;0.10;;;;;;;;;;6227486;22;20012;-90
2023/07/31 12:08:12;;;;;;;0.10;0.10;;;;;;;;;;6146635;22;20030;-88
2023/07/31 12:10:50;;;;;;;0.00;0.00;;;;;;;;;;6269602;22;20000;-87
2023/07/31 12:13:37;;;;;;;0.03;0.03;;;;;;;;;;6269602;22;20084;-89
2023/07/31 12:34:18;;;;;;;0.08;0.08;;;;;;;;;;6186866;22;20084;-90
2023/07/31 12:52:21;;;;;;;0.10;0.10;;;;;;;;;;6158392;22;20036;-87
2023/07/31 12:54:47;;;;;;;0.03;0.03;;;;;;;;;;6241449;22;20016;-87
2023/07/31 12:59:48;;;;;;;0.10;0.10;;;;;;;;;;6185572;22;20008;-89
2023/07/31 13:02:15;;;;;;;0.00;0.00;;;;;;;;;;6212786;22;20084;-88
2023/07/31 13:04:41;;;;;;;0.05;0.05;;;;;;;;;;6213053;23;20068;-87
2023/07/31 13:07:12;;;;;;;0.10;0.10;;;;;;;;;;6211237;23;20042;-87
2023/07/31 13:09:38;;;;;;;0.10;0.10;;;;;;;;;;6213773;23;20001;-87
2023/07/31 13:12:08;;;;;;;0.10;0.10;;;;;;;;;;6211473;23;20020;-88
2023/07/31 13:19:46;;;;;;;0.03;0.03;;;;;;;;;;6254058;22;20024;-88
2023/07/31 13:22:13;;;;;;;0.10;0.10;;;;;;;;;;6210411;22;20065;-89
2023/07/31 13:24:39;;;;;;;0.10;0.10;;;;;;;;;;6357966;22;20003;-89
2023/07/31 13:27:11;;;;;;;0.10;0.10;;;;;;;;;;6372077;22;20002;-87
2023/07/31 13:29:39;;;;;;;0.00;0.00;;;;;;;;;;6371014;22;20002;-88
2023/07/31 13:32:21;;;;;;;0.10;0.10;;;;;;;;;;6345143;22;20022;-87
2023/07/31 13:34:49;;;;;;;0.20;0.20;;;;;;;;;;6256548;22;20020;-88
2023/07/31 13:37:17;;;;;;;0.10;0.10;;;;;;;;;;6290901;22;20012;-92
2023/07/31 13:42:50;;;;;;;0.10;0.10;;;;;;;;;;6256013;22;20035;-88
2023/07/31 13:47:56;;;;;;;0.20;0.20;;;;;;;;;;6255379;22;20017;-88
2023/07/31 13:50:27;;;;;;;0.00;0.00;;;;;;;;;;6193486;22;20016;-87
2023/07/31 13:53:08;;;;;;;0.10;0.10;;;;;;;;;;6267445;22;20007;-87
2023/07/31 13:55:35;;;;;;;0.13;0.13;;;;;;;;;;6216608;23;20520;-89
2023/07/31 13:58:05;;;;;;;0.00;0.00;;;;;;;;;;6214651;22;19996;-88
2023/07/31 14:00:32;;;;;;;0.10;0.10;;;;;;;;;;6262181;22;20098;-87
2023/07/31 14:03:07;;;;;;;0.08;0.08;;;;;;;;;;6245662;22;20023;-88
2023/07/31 14:05:37;;;;;;;0.10;0.10;;;;;;;;;;6213786;23;20016;-89
2023/07/31 14:08:03;;;;;;;0.00;0.00;;;;;;;;;;6217105;22;20004;-86
2023/07/31 14:15:45;;;;;;;0.30;0.30;;;;;;;;;;6265476;22;20024;-91
2023/07/31 14:18:21;;;;;;;0.10;0.10;;;;;;;;;;6187083;22;20049;-86
2023/07/31 14:20:47;;;;;;;0.10;0.10;;;;;;;;;;6186573;22;20444;-87
2023/07/31 14:23:14;;;;;;;0.10;0.10;;;;;;;;;;6161751;23;20023;-86
2023/07/31 14:25:44;;;;;;;0.10;0.10;;;;;;;;;;6183239;23;20005;-87
2023/07/31 14:28:19;;;;;;;0.10;0.10;;;;;;;;;;6183450;23;20016;-88
2023/07/31 14:30:45;;;;;;;0.10;0.10;;;;;;;;;;6186131;22;20021;-87
2023/07/31 14:33:24;;;;;;;0.08;0.08;;;;;;;;;;6207132;23;20016;-88
2023/07/31 14:35:50;;;;;;;0.10;0.10;;;;;;;;;;6181107;23;20016;-90
2023/07/31 14:38:19;;;;;;;0.20;0.20;;;;;;;;;;6181454;23;20029;-87
2023/07/31 14:40:51;;;;;;;0.00;0.00;;;;;;;;;;6182539;23;20043;-88
2023/07/31 14:43:17;;;;;;;0.10;0.10;;;;;;;;;;6182119;22;20017;-88
2023/07/31 14:45:59;;;;;;;0.10;0.10;;;;;;;;;;6187320;23;20004;-87
2023/07/31 14:48:29;;;;;;;0.10;0.10;;;;;;;;;;6183227;22;20015;-91
2023/07/31 14:50:55;;;;;;;0.10;0.10;;;;;;;;;;6160634;23;20031;-87
2023/07/31 14:53:21;;;;;;;0.00;0.00;;;;;;;;;;6179789;23;20352;-91
2023/07/31 14:55:48;;;;;;;0.00;0.00;;;;;;;;;;6184593;22;20009;-86
2023/07/31 15:32:02;;;;;;;0.03;0.03;;;;;;;;;;6203399;22;20005;-87
2023/07/31 15:34:38;;;;;;;0.00;0.00;;;;;;;;;;6211150;22;20004;-84
2023/07/31 15:37:09;;;;;;;0.03;0.03;;;;;;;;;;6215166;23;20009;-86
2023/07/31 15:39:55;;;;;;;0.10;0.10;;;;;;;;;;6239481;22;20020;-86
2023/07/31 15:55:48;;;;;;;0.10;0.10;;;;;;;;;;6237610;22;20029;-87
2023/07/31 15:58:14;;;;;;;0.10;0.10;;;;;;;;;;6189426;22;20021;-85
2023/07/31 16:00:42;;;;;;;0.20;0.20;;;;;;;;;;6236525;23;20009;-87
2023/07/31 16:03:09;;;;;;;0.10;0.10;;;;;;;;;;6212385;22;20011;-87
2023/07/31 16:05:48;;;;;;;0.17;0.17;;;;;;;;;;6212265;22;20016;-87
2023/07/31 16:08:46;;;;;;;0.10;0.10;;;;;;;;;;6214506;22;20028;-86
2023/07/31 16:11:12;;;;;;;0.10;0.10;;;;;;;;;;6207464;22;20020;-86
2023/07/31 16:13:38;;;;;;;0.00;0.00;;;;;;;;;;6205674;22;20021;-87
2023/07/31 16:16:05;;;;;;;0.10;0.10;;;;;;;;;;6208159;22;20012;-88
2023/07/31 16:18:31;;;;;;;0.10;0.10;;;;;;;;;;6207034;22;20012;-86
2023/07/31 16:21:04;;;;;;;0.10;0.10;;;;;;;;;;6207126;22;20013;-89
2023/07/31 16:23:30;;;;;;;0.00;0.00;;;;;;;;;;6206721;22;20072;-86
2023/07/31 16:25:57;;;;;;;0.03;0.03;;;;;;;;;;6206464;22;20001;-85
2023/07/31 16:28:23;;;;;;;0.20;0.20;;;;;;;;;;6206231;22;20016;-86
2023/07/31 16:30:49;;;;;;;0.08;0.08;;;;;;;;;;6207389;22;20017;-87
2023/07/31 16:33:17;;;;;;;0.10;0.10;;;;;;;;;;6205433;23;20024;-86
2023/07/31 16:35:43;;;;;;;0.10;0.10;;;;;;;;;;6206401;22;20016;-88
2023/07/31 16:38:09;;;;;;;0.10;0.10;;;;;;;;;;6208228;22;20016;-88
2023/07/31 16:40:35;;;;;;;0.00;0.00;;;;;;;;;;6206537;22;20076;-89
2023/07/31 16:43:01;;;;;;;0.10;0.10;;;;;;;;;;6207506;22;20072;-87
2023/07/31 16:45:27;;;;;;;0.10;0.10;;;;;;;;;;6208172;22;20072;-88
2023/07/31 16:47:54;;;;;;;0.10;0.10;;;;;;;;;;6208304;23;20040;-88
2023/07/31 16:50:20;;;;;;;0.00;0.00;;;;;;;;;;6208348;22;20001;-87
2023/07/31 16:52:46;;;;;;;0.10;0.10;;;;;;;;;;6208337;22;19996;-87
2023/07/31 16:55:12;;;;;;;0.10;0.10;;;;;;;;;;6207978;22;20016;-87
2023/07/31 16:57:46;;;;;;;0.05;0.05;;;;;;;;;;6207796;22;20021;-88
2023/07/31 17:00:12;;;;;;;0.10;0.10;;;;;;;;;;6208916;22;20001;-88
2023/07/31 17:02:38;;;;;;;0.10;0.10;;;;;;;;;;6207632;22;20028;-87
2023/07/31 17:05:06;;;;;;;0.00;0.00;;;;;;;;;;6201303;22;20020;-87
2023/07/31 17:07:32;;;;;;;0.00;0.00;;;;;;;;;;6208029;22;20017;-88
2023/07/31 17:10:02;;;;;;;0.20;0.20;;;;;;;;;;6234766;22;20016;-88
2023/07/31 17:12:28;;;;;;;0.00;0.00;;;;;;;;;;6207542;22;20016;-87
2023/07/31 17:14:57;;;;;;;0.17;0.17;;;;;;;;;;6208287;23;20050;-87
2023/07/31 17:17:28;;;;;;;0.00;0.00;;;;;;;;;;6210769;23;20016;-88
2023/07/31 17:19:55;;;;;;;0.10;0.10;;;;;;;;;;6207777;22;20073;-87
2023/07/31 17:22:21;;;;;;;0.10;0.10;;;;;;;;;;6207740;22;20146;-88
2023/07/31 17:24:47;;;;;;;0.10;0.10;;;;;;;;;;6208395;22;20017;-86
2023/07/31 17:27:13;;;;;;;0.10;0.10;;;;;;;;;;6207186;22;20054;-88
2023/07/31 17:29:41;;;;;;;0.10;0.10;;;;;;;;;;6207248;22;20020;-87
2023/07/31 17:32:07;;;;;;;0.10;0.10;;;;;;;;;;6207384;22;20016;-86
2023/07/31 17:34:33;;;;;;;0.10;0.10;;;;;;;;;;6207479;23;20016;-85
2023/07/31 17:37:00;;;;;;;0.10;0.10;;;;;;;;;;6207321;22;20023;-87
2023/07/31 17:39:28;;;;;;;0.00;0.00;;;;;;;;;;6208678;22;20026;-87
2023/07/31 17:41:57;;;;;;;0.20;0.20;;;;;;;;;;6207592;22;20021;-87
2023/07/31 17:44:23;;;;;;;0.10;0.10;;;;;;;;;;6207909;22;20023;-87
2023/07/31 17:46:50;;;;;;;0.10;0.10;;;;;;;;;;6207078;22;20027;-87
2023/07/31 17:49:17;;;;;;;0.20;0.20;;;;;;;;;;6207760;23;20024;-89
2023/07/31 17:51:43;;;;;;;0.10;0.10;;;;;;;;;;6205371;22;20004;-88
2023/07/31 17:54:10;;;;;;;0.10;0.10;;;;;;;;;;6206947;22;20024;-88
2023/07/31 17:56:37;;;;;;;0.20;0.20;;;;;;;;;;6205196;22;20012;-87
2023/07/31 17:59:04;;;;;;;0.10;0.10;;;;;;;;;;6205549;23;20001;-88
2023/07/31 18:01:31;;;;;;;0.10;0.10;;;;;;;;;;6203012;22;20017;-89
2023/07/31 18:03:59;;;;;;;0.08;0.08;;;;;;;;;;6204740;22;20012;-89
2023/07/31 18:06:31;;;;;;;0.10;0.10;;;;;;;;;;6203872;22;20017;-90
2023/07/31 18:08:57;;;;;;;0.10;0.10;;;;;;;;;;6228665;22;20020;-88
2023/07/31 18:11:26;;;;;;;0.08;0.08;;;;;;;;;;6202943;22;20414;-88
2023/07/31 18:13:53;;;;;;;0.10;0.10;;;;;;;;;;6202941;22;20500;-87
2023/07/31 18:16:20;;;;;;;0.10;0.10;;;;;;;;;;6202823;22;20020;-88
2023/07/31 18:18:47;;;;;;;0.08;0.08;;;;;;;;;;6203026;22;20017;-88
2023/07/31 18:21:36;;;;;;;0.17;0.17;;;;;;;;;;6202412;22;20020;-87
2023/07/31 18:24:03;;;;;;;0.17;0.17;;;;;;;;;;6202903;22;20038;-88
2023/07/31 18:26:30;;;;;;;0.10;0.10;;;;;;;;;;6202511;22;20017;-85
2023/07/31 18:28:56;;;;;;;0.10;0.10;;;;;;;;;;6202224;22;20016;-89
2023/07/31 18:31:32;;;;;;;0.03;0.03;;;;;;;;;;6228770;22;20038;-88
2023/07/31 18:34:06;;;;;;;0.10;0.10;;;;;;;;;;6201941;22;20410;-88
2023/07/31 18:36:35;;;;;;;0.10;0.10;;;;;;;;;;6199776;22;20020;-86
2023/07/31 18:39:10;;;;;;;0.10;0.10;;;;;;;;;;6201334;22;20027;-86
2023/07/31 18:41:36;;;;;;;0.10;0.10;;;;;;;;;;6201356;22;20024;-89
2023/07/31 18:44:05;;;;;;;0.13;0.13;;;;;;;;;;6226117;22;20060;-86
2023/07/31 18:46:31;;;;;;;0.10;0.10;;;;;;;;;;6282785;22;20024;-87
2023/07/31 18:48:58;;;;;;;0.10;0.10;;;;;;;;;;6201860;22;20000;-88
2023/07/31 18:51:37;;;;;;;0.20;0.20;;;;;;;;;;6201870;22;20064;-89
2023/07/31 18:54:03;;;;;;;0.13;0.13;;;;;;;;;;6204363;22;20016;-87
2023/07/31 18:56:29;;;;;;;0.10;0.10;;;;;;;;;;6203204;22;20393;-86
2023/07/31 18:58:56;;;;;;;0.10;0.10;;;;;;;;;;6203343;22;20069;-88
2023/07/31 19:01:23;;;;;;;0.05;0.05;;;;;;;;;;6201547;23;20064;-87
2023/07/31 19:03:49;;;;;;;0.00;0.00;;;;;;;;;;6203073;22;20027;-88
2023/07/31 19:06:16;;;;;;;0.10;0.10;;;;;;;;;;6205031;22;20017;-89
2023/07/31 19:08:44;;;;;;;0.17;0.17;;;;;;;;;;6204852;22;20070;-88
2023/07/31 19:11:11;;;;;;;0.10;0.10;;;;;;;;;;6205655;22;20040;-87
2023/07/31 19:13:37;;;;;;;0.20;0.20;;;;;;;;;;6203767;22;20020;-89
2023/07/31 19:16:13;;;;;;;0.10;0.10;;;;;;;;;;6203529;23;20020;-87
2023/07/31 19:18:40;;;;;;;0.10;0.10;;;;;;;;;;6204436;22;20027;-87
2023/07/31 19:21:07;;;;;;;0.22;0.22;;;;;;;;;;6203295;22;20074;-84
2023/07/31 19:23:36;;;;;;;0.20;0.20;;;;;;;;;;6230229;23;20027;-88
2023/07/31 19:26:03;;;;;;;0.15;0.15;;;;;;;;;;6204966;22;20021;-88
2023/07/31 19:28:29;;;;;;;0.10;0.10;;;;;;;;;;6205151;22;20016;-88
2023/07/31 19:31:04;;;;;;;0.10;0.10;;;;;;;;;;6204353;22;20017;-86
2023/07/31 19:33:30;;;;;;;;;;;;;;;;;;6203038;22;20091;-86
2023/07/31 19:35:57;;;;;;;0.20;0.20;;;;;;;;;;6201761;23;19912;-89
2023/07/31 19:38:40;;;;;;;0.10;0.10;;;;;;;;;;6282354;22;20016;-87
2023/07/31 19:41:19;;;;;;;0.20;0.20;;;;;;;;;;6201947;22;20024;-87
2023/07/31 19:43:57;;;;;;;0.10;0.10;;;;;;;;;;6203947;22;20072;-86
2023/07/31 19:46:35;;;;;;;0.10;0.10;;;;;;;;;;6203282;22;20020;-87
2023/07/31 19:49:05;;;;;;;0.00;0.00;;;;;;;;;;6202996;22;20069;-88
2023/07/31 19:51:35;;;;;;;0.10;0.10;;;;;;;;;;6200064;22;20032;-87
2023/07/31 19:54:04;;;;;;;0.13;0.13;;;;;;;;;;6199202;22;20324;-85
2023/07/31 19:56:35;;;;;;;0.10;0.10;;;;;;;;;;6328733;22;20023;-86
2023/07/31 19:59:01;;;;;;;0.10;0.10;;;;;;;;;;6327509;22;20066;-84
2023/07/31 20:01:29;;;;;;;0.10;0.10;;;;;;;;;;6327844;22;20019;-86
2023/07/31 20:04:24;;;;;;;0.10;0.10;;;;;;;;;;6330283;22;20038;-87
2023/07/31 20:06:50;;;;;;;0.10;0.10;;;;;;;;;;6328153;22;20078;-86
2023/07/31 20:09:25;;;;;;;0.10;0.10;;;;;;;;;;6329621;22;20041;-86
2023/07/31 20:11:52;;;;;;;0.10;0.10;;;;;;;;;;6329108;22;20022;-85
2023/07/31 20:14:18;;;;;;;0.20;0.20;;;;;;;;;;6327377;22;20026;-87
2023/07/31 20:16:47;;;;;;;0.10;0.10;;;;;;;;;;6327693;22;20069;-87
2023/07/31 20:19:18;;;;;;;0.20;0.20;;;;;;;;;;6326087;22;20028;-88
2023/07/31 20:21:44;;;;;;;0.10;0.10;;;;;;;;;;6328269;22;20018;-86
2023/07/31 20:24:13;;;;;;;0.10;0.10;;;;;;;;;;6352646;22;20071;-87
2023/07/31 20:26:41;;;;;;;0.10;0.10;;;;;;;;;;6329143;22;20044;-87
2023/07/31 20:29:12;;;;;;;0.20;0.20;;;;;;;;;;6327959;22;20098;-87
2023/07/31 20:31:41;;;;;;;0.00;0.00;;;;;;;;;;6328010;22;20086;-87
2023/07/31 20:34:11;;;;;;;0.22;0.22;;;;;;;;;;6326870;22;20011;-86
2023/07/31 20:36:37;;;;;;;0.10;0.10;;;;;;;;;;6325716;22;20441;-86
2023/07/31 20:39:05;;;;;;;0.20;0.20;;;;;;;;;;6327011;22;20017;-87
2023/07/31 20:41:35;;;;;;;0.10;0.10;;;;;;;;;;6353484;22;20033;-86
2023/07/31 20:44:02;;;;;;;0.10;0.10;;;;;;;;;;6328121;22;20071;-87
2023/07/31 20:46:31;;;;;;;0.10;0.10;;;;;;;;;;6355844;22;20014;-86
2023/07/31 20:48:57;;;;;;;0.10;0.10;;;;;;;;;;6330118;22;20015;-87
2023/07/31 20:51:25;;;;;;;0.10;0.10;;;;;;;;;;6328742;22;20045;-86
2023/07/31 20:53:51;;;;;;;0.10;0.10;;;;;;;;;;6328923;22;20043;-85
2023/07/31 20:56:18;;;;;;;0.10;0.10;;;;;;;;;;6212363;22;20016;-86
2023/07/31 20:58:46;;;;;;;0.10;0.10;;;;;;;;;;6199637;22;20028;-85
2023/07/31 21:01:12;;;;;;;0.10;0.10;;;;;;;;;;6202715;22;20024;-88
2023/07/31 21:03:38;;;;;;;0.17;0.17;;;;;;;;;;6201396;22;20066;-86
2023/07/31 21:06:04;;;;;;;0.10;0.10;;;;;;;;;;6199475;22;20035;-87
2023/07/31 21:08:30;;;;;;;0.10;0.10;;;;;;;;;;6202197;22;20013;-86
2023/07/31 21:10:56;;;;;;;0.10;0.10;;;;;;;;;;6199632;22;20016;-84
2023/07/31 21:13:34;;;;;;;0.00;0.00;;;;;;;;;;6199548;22;20494;-85
2023/07/31 21:16:00;;;;;;;0.10;0.10;;;;;;;;;;6198737;22;20047;-87
2023/07/31 21:18:27;;;;;;;0.10;0.10;;;;;;;;;;6200386;23;20021;-86
2023/07/31 21:20:58;;;;;;;0.10;0.10;;;;;;;;;;6199086;22;20056;-86
2023/07/31 21:23:24;;;;;;;0.13;0.13;;;;;;;;;;6202536;22;20074;-86
2023/07/31 21:25:51;;;;;;;0.10;0.10;;;;;;;;;;6203389;22;20001;-87
2023/07/31 21:28:18;;;;;;;0.10;0.10;;;;;;;;;;6204524;22;20037;-86
2023/07/31 21:30:44;;;;;;;0.10;0.10;;;;;;;;;;6204104;22;20016;-86
2023/07/31 21:33:10;;;;;;;0.10;0.10;;;;;;;;;;6203546;22;20070;-87
2023/07/31 21:35:46;;;;;;;0.17;0.17;;;;;;;;;;6201924;22;20005;-87
2023/07/31 21:38:13;;;;;;;0.20;0.20;;;;;;;;;;6200951;22;20047;-87
2023/07/31 21:40:39;;;;;;;0.10;0.10;;;;;;;;;;6229064;22;20016;-87
2023/07/31 21:43:05;;;;;;;0.15;0.15;;;;;;;;;;6201210;22;20031;-88
2023/07/31 21:45:36;;;;;;;0.20;0.20;;;;;;;;;;6201576;23;20017;-86
2023/07/31 21:48:02;;;;;;;0.05;0.05;;;;;;;;;;6202219;22;20034;-86
2023/07/31 21:50:32;;;;;;;0.20;0.20;;;;;;;;;;6202549;22;20023;-87
2023/07/31 21:52:59;;;;;;;0.20;0.20;;;;;;;;;;6200513;22;20016;-86
2023/07/31 21:55:25;;;;;;;0.10;0.10;;;;;;;;;;6201297;22;20049;-85
2023/07/31 21:57:58;;;;;;;0.17;0.17;;;;;;;;;;6201152;22;20031;-87
2023/07/31 22:00:25;;;;;;;0.10;0.10;;;;;;;;;;6201329;22;20458;-86
2023/07/31 22:03:03;;;;;;;0.10;0.10;;;;;;;;;;6200932;22;20435;-86
2023/07/31 22:05:29;;;;;;;0.10;0.10;;;;;;;;;;6201802;22;20020;-86
2023/07/31 22:07:57;;;;;;;0.05;0.05;;;;;;;;;;6200322;22;20016;-86
2023/07/31 22:10:29;;;;;;;0.28;0.28;;;;;;;;;;6199385;22;20051;-85
2023/07/31 22:12:55;;;;;;;0.20;0.20;;;;;;;;;;6200843;22;20013;-86
2023/07/31 22:15:21;;;;;;;0.20;0.20;;;;;;;;;;6201131;22;20032;-86
2023/07/31 22:17:47;;;;;;;0.10;0.10;;;;;;;;;;6200828;22;20016;-88
2023/07/31 22:20:15;;;;;;;0.10;0.10;;;;;;;;;;6199886;22;20056;-87
2023/07/31 22:22:41;;;;;;;0.10;0.10;;;;;;;;;;6200489;22;20016;-87
2023/07/31 22:25:07;;;;;;;0.10;0.10;;;;;;;;;;6201108;22;20020;-86
2023/07/31 22:27:37;;;;;;;0.15;0.15;;;;;;;;;;6201078;22;20042;-86
2023/07/31 22:30:04;;;;;;;0.15;0.15;;;;;;;;;;6201413;22;20021;-86
2023/07/31 22:32:30;;;;;;;0.10;0.10;;;;;;;;;;6201861;22;20017;-87
2023/07/31 22:34:56;;;;;;;0.10;0.10;;;;;;;;;;6199324;22;20096;-86
2023/07/31 22:37:22;;;;;;;0.20;0.20;;;;;;;;;;6200198;22;20012;-86
2023/07/31 22:39:49;;;;;;;0.10;0.10;;;;;;;;;;6200181;22;20028;-86
2023/07/31 22:42:16;;;;;;;0.10;0.10;;;;;;;;;;6202516;22;20044;-87
2023/07/31 22:44:42;;;;;;;0.20;0.20;;;;;;;;;;6222873;22;20032;-86
2023/07/31 22:47:08;;;;;;;0.15;0.15;;;;;;;;;;6199366;22;20324;-86
2023/07/31 22:49:34;;;;;;;0.10;0.10;;;;;;;;;;6201358;22;20649;-87
2023/07/31 22:52:00;;;;;;;0.10;0.10;;;;;;;;;;6199990;22;20013;-84
2023/07/31 22:54:26;;;;;;;0.10;0.10;;;;;;;;;;6201655;22;20017;-86
2023/07/31 22:56:55;;;;;;;0.10;0.10;;;;;;;;;;6201229;23;20017;-87
2023/07/31 22:59:30;;;;;;;0.10;0.10;;;;;;;;;;6223658;22;20009;-87
2023/07/31 23:01:56;;;;;;;0.10;0.10;;;;;;;;;;6279134;22;20013;-88
2023/07/31 23:04:22;;;;;;;0.03;0.03;;;;;;;;;;6194730;22;20017;-85
2023/07/31 23:06:49;;;;;;;0.20;0.20;;;;;;;;;;6198698;22;20337;-85
2023/07/31 23:09:15;;;;;;;0.20;0.20;;;;;;;;;;6200343;22;20060;-87
2023/07/31 23:11:43;;;;;;;0.10;0.10;;;;;;;;;;6201124;23;20113;-86
2023/07/31 23:14:10;;;;;;;0.15;0.15;;;;;;;;;;6201613;22;20013;-87
2023/07/31 23:16:36;;;;;;;0.20;0.20;;;;;;;;;;6200501;22;20047;-86
2023/07/31 23:19:02;;;;;;;0.10;0.10;;;;;;;;;;6200658;23;20025;-86
2023/07/31 23:21:28;;;;;;;0.10;0.10;;;;;;;;;;6199429;22;20016;-87
2023/07/31 23:24:14;;;;;;;0.10;0.10;;;;;;;;;;6199317;22;20083;-86
2023/07/31 23:26:40;;;;;;;0.17;0.17;;;;;;;;;;6197254;22;20055;-87
2023/07/31 23:29:36;;;;;;;0.10;0.10;;;;;;;;;;6199548;22;20066;-86
2023/07/31 23:32:02;;;;;;;0.10;0.10;;;;;;;;;;6198066;22;20021;-87
2023/07/31 23:34:28;;;;;;;0.17;0.17;;;;;;;;;;6199749;22;20013;-87
2023/07/31 23:36:54;;;;;;;0.20;0.20;;;;;;;;;;6199300;22;20017;-85
2023/07/31 23:39:21;;;;;;;0.10;0.10;;;;;;;;;;6201130;22;20038;-86
2023/07/31 23:41:47;;;;;;;0.20;0.20;;;;;;;;;;6200598;22;20091;-87
2023/07/31 23:44:14;;;;;;;0.10;0.10;;;;;;;;;;6200625;22;20019;-86
2023/07/31 23:46:46;;;;;;;0.20;0.20;;;;;;;;;;6200424;22;20021;-85
2023/07/31 23:49:14;;;;;;;0.10;0.10;;;;;;;;;;6197342;23;20021;-86
2023/07/31 23:51:41;;;;;;;0.20;0.20;;;;;;;;;;6196761;22;20013;-86
2023/07/31 23:54:10;;;;;;;0.13;0.13;;;;;;;;;;6199649;22;20017;-86
2023/07/31 23:56:36;;;;;;;0.20;0.20;;;;;;;;;;6198672;22;20046;-85
2023/07/31 23:59:03;;;;;;;0.13;0.13;;;;;;;;;;6303240;22;20027;-86
